Ainazi, Latvia

5:40 PM EEST on July 28, 2016 (GMT +0300)
Parnu | | Change Station

Elev 46 ft 58.42 °N, 24.47 °E | Updated 1 hour ago

Partly Cloudy
Partly Cloudy
73 °F
Feels Like 73 °F
N
6
Wind Variable Wind from NW

Today
High -- | Low -- °F
--% Chance of Precip.
Yesterday
High -- | Low -- °F
Precip. -- in
Pressure 29.86 in
Visibility 6.2 miles
Clouds Few 700 ft
Dew Point 70 °F
Humidity 88%
Rainfall 0.00 in
Snow Depth Not available.
5:08 AM 9:47 PM
Waning Crescent, 31% visible
METAR EEPU 281250Z 32005KT 290V030 9999 FEW007 23/21 Q1011
Pressure 29.86 in
Visibility 6.2 miles
Clouds Few 700 ft
Dew Point 70 °F
Humidity 88%
Rainfall 0.00 in
Snow Depth Not available.
5:08 AM 9:47 PM
Waning Crescent, 31% visible
METAR EEPU 281250Z 32005KT 290V030 9999 FEW007 23/21 Q1011

10-Day Weather Forecast

×

Almanac

Astronomy

Jul. 28, 2016 Rise Set
Actual Time
Civil Twilight
Nautical Twilight
Astronomical Twilight
Moon
Length of Visible Light
Length of Day
Tomorrow will be .
, % of the Moon is Illuminated

Today's Extremes

Country Highs Country Lows

Community

WunderPhotos

Upload Photos

1,928,117 photos uploaded!

WunderBlog® & News

Nearby

Air Quality

  Air Quality AQ Index Pollutant
Not available.

Snow Depth

Station Depth Elevation

Earthquake Activity

City Distance Mag. Time & Date
Minimum magnitude displayed is 2.5.

Coastal Water Temperatures

Place Temperature

Stations

Nearby Weather Stations

Station Location Temp. Windchill Dew Point Humidity Wind Precip. Elev Updated Type